createdAt,value
2022-09-29T00:00:45.639Z,4.79
2022-09-29T00:03:13.026Z,4.77
2022-09-29T00:05:40.521Z,4.76
2022-09-29T00:08:07.885Z,4.76
2022-09-29T00:10:35.239Z,4.76
2022-09-29T00:13:02.604Z,4.74
2022-09-29T00:15:29.793Z,4.72
2022-09-29T00:18:13.091Z,4.72
2022-09-29T00:20:41.114Z,4.71
2022-09-29T00:23:08.479Z,4.71
2022-09-29T00:25:35.720Z,4.72
2022-09-29T00:28:04.200Z,4.73
2022-09-29T00:30:31.553Z,4.72
2022-09-29T00:32:58.918Z,4.71
2022-09-29T00:35:26.479Z,4.69
2022-09-29T00:37:53.709Z,4.69
2022-09-29T00:40:20.842Z,4.69
2022-09-29T00:42:48.618Z,4.70
2022-09-29T00:45:22.447Z,4.71
2022-09-29T00:48:20.120Z,4.72
2022-09-29T00:50:50.309Z,4.70
2022-09-29T00:53:21.507Z,4.68
2022-09-29T00:55:57.111Z,4.64
2022-09-29T00:58:35.831Z,4.62
2022-09-29T01:01:03.295Z,4.59
2022-09-29T01:03:42.306Z,4.58
2022-09-29T01:06:16.949Z,4.57
2022-09-29T01:08:58.604Z,4.56
2022-09-29T01:11:26.406Z,4.57
2022-09-29T01:13:54.064Z,4.58
2022-09-29T01:16:21.389Z,4.59
2022-09-29T01:18:48.747Z,4.59
2022-09-29T01:21:33.960Z,4.61
2022-09-29T01:24:38.952Z,4.61
2022-09-29T01:27:34.174Z,4.64
2022-09-29T01:30:08.513Z,4.67
2022-09-29T01:32:48.576Z,4.71
2022-09-29T01:35:24.910Z,4.73
2022-09-29T01:37:52.150Z,4.71
2022-09-29T01:40:42.199Z,4.62
2022-09-29T01:43:22.644Z,4.49
2022-09-29T01:45:58.481Z,4.39
2022-09-29T01:48:30.257Z,4.35
2022-09-29T01:51:01.089Z,4.33
2022-09-29T01:53:35.747Z,4.31
2022-09-29T01:56:08.038Z,4.30
2022-09-29T01:58:54.959Z,4.28
2022-09-29T02:01:25.132Z,4.26
2022-09-29T02:04:01.159Z,4.23
2022-09-29T02:06:36.923Z,4.18
2022-09-29T02:09:10.181Z,4.16
2022-09-29T02:11:40.184Z,4.15
2022-09-29T02:14:26.003Z,4.15
2022-09-29T02:17:03.586Z,4.12
2022-09-29T02:19:33.801Z,4.10
2022-09-29T02:22:01.079Z,4.09
2022-09-29T02:24:28.727Z,4.07
2022-09-29T02:26:57.399Z,4.04
2022-09-29T02:29:24.959Z,4.02
2022-09-29T02:31:52.487Z,4.01
2022-09-29T02:34:21.994Z,4.00
2022-09-29T02:37:08.015Z,4.00
2022-09-29T02:39:47.870Z,3.99
2022-09-29T02:43:00.771Z,3.98
2022-09-29T02:45:58.755Z,3.97
2022-09-29T02:49:05.039Z,3.94
2022-09-29T02:51:37.460Z,3.93
2022-09-29T02:54:35.879Z,3.92
2022-09-29T02:57:21.159Z,3.91
2022-09-29T03:00:11.015Z,3.91
2022-09-29T03:02:40.150Z,3.92
2022-09-29T03:05:13.997Z,3.93
2022-09-29T03:07:41.993Z,3.92
2022-09-29T03:10:10.287Z,3.91
2022-09-29T03:12:38.031Z,3.90
2022-09-29T03:15:06.216Z,3.89
2022-09-29T03:17:33.867Z,3.87
2022-09-29T03:20:01.759Z,3.86
2022-09-29T03:22:29.196Z,3.85
2022-09-29T03:24:56.541Z,3.84
2022-09-29T03:27:24.207Z,3.83
2022-09-29T03:29:51.667Z,3.82
2022-09-29T03:32:19.239Z,3.81
2022-09-29T03:34:46.622Z,3.80
2022-09-29T03:37:14.039Z,3.78
2022-09-29T03:39:41.172Z,3.75
2022-09-29T03:42:08.473Z,3.74
2022-09-29T03:44:35.924Z,3.74
2022-09-29T03:47:03.248Z,3.73
2022-09-29T03:49:30.696Z,3.73
2022-09-29T03:51:57.879Z,3.73
2022-09-29T03:54:27.048Z,3.74
2022-09-29T03:56:54.515Z,3.76
2022-09-29T03:59:22.080Z,3.77
2022-09-29T04:01:49.681Z,3.79
2022-09-29T04:04:17.321Z,3.81
2022-09-29T04:06:44.633Z,3.82
2022-09-29T04:09:12.035Z,3.85
2022-09-29T04:11:39.480Z,3.87
2022-09-29T04:14:07.111Z,3.90
2022-09-29T04:16:34.545Z,3.91
2022-09-29T04:19:01.811Z,3.91
2022-09-29T04:21:29.063Z,3.90
2022-09-29T04:23:56.322Z,3.90
2022-09-29T04:26:23.689Z,3.89
2022-09-29T04:28:51.031Z,3.89
2022-09-29T04:31:18.841Z,3.88
2022-09-29T04:33:46.036Z,3.87
2022-09-29T04:36:13.360Z,3.85
2022-09-29T04:38:40.864Z,3.82
2022-09-29T04:41:09.350Z,3.77
2022-09-29T04:43:36.798Z,3.75
2022-09-29T04:46:06.383Z,3.72
2022-09-29T04:48:35.981Z,3.70
2022-09-29T04:51:05.199Z,3.69
2022-09-29T04:53:32.753Z,3.69
2022-09-29T04:56:00.439Z,3.71
2022-09-29T04:58:27.681Z,3.72
2022-09-29T05:00:55.677Z,3.74
2022-09-29T05:03:24.113Z,3.77
2022-09-29T05:05:55.667Z,3.76
2022-09-29T05:08:22.918Z,3.74
2022-09-29T05:10:51.889Z,3.75
2022-09-29T05:13:19.199Z,3.77
2022-09-29T05:15:46.559Z,3.79
2022-09-29T05:18:13.979Z,3.82
2022-09-29T05:20:51.772Z,3.86
2022-09-29T05:23:29.672Z,3.90
2022-09-29T05:26:02.106Z,3.91
2022-09-29T05:28:29.402Z,3.92
2022-09-29T05:31:05.128Z,3.94
2022-09-29T05:33:33.160Z,3.98
2022-09-29T05:36:00.973Z,4.02
2022-09-29T05:38:28.637Z,4.05
2022-09-29T05:40:56.065Z,4.09
2022-09-29T05:43:23.322Z,4.11
2022-09-29T05:45:50.549Z,4.10
2022-09-29T05:48:18.599Z,4.09
2022-09-29T05:50:46.561Z,4.10
2022-09-29T05:53:14.367Z,4.14
2022-09-29T05:55:41.668Z,4.17
2022-09-29T05:58:09.425Z,4.21
2022-09-29T06:00:36.821Z,4.25
2022-09-29T06:03:04.553Z,4.31
2022-09-29T06:05:32.074Z,4.40
2022-09-29T06:07:59.674Z,4.50
2022-09-29T06:10:26.912Z,4.60
2022-09-29T06:12:54.196Z,4.70
2022-09-29T06:15:21.438Z,4.82
2022-09-29T06:17:48.767Z,4.95
2022-09-29T06:20:16.660Z,5.04
2022-09-29T06:22:44.439Z,5.15
2022-09-29T06:25:12.004Z,5.27
2022-09-29T06:27:39.241Z,5.40
2022-09-29T06:30:07.808Z,5.52
2022-09-29T06:32:36.371Z,5.66
2022-09-29T06:35:22.979Z,5.81
2022-09-29T06:37:51.278Z,5.98
2022-09-29T06:40:21.223Z,6.11
2022-09-29T06:42:49.362Z,6.23
2022-09-29T06:45:20.303Z,6.33
2022-09-29T06:47:49.600Z,6.45
2022-09-29T06:50:18.410Z,6.58
2022-09-29T06:52:57.456Z,6.70
2022-09-29T06:55:29.280Z,6.83
2022-09-29T06:57:58.942Z,6.96
2022-09-29T07:00:30.413Z,7.10
2022-09-29T07:02:57.804Z,7.23
2022-09-29T07:05:25.364Z,7.36
2022-09-29T07:07:57.500Z,7.48
2022-09-29T07:10:27.437Z,7.59
2022-09-29T07:12:56.005Z,7.69
2022-09-29T07:15:23.263Z,7.79
2022-09-29T07:17:53.678Z,7.88
2022-09-29T07:20:20.817Z,7.98
2022-09-29T07:22:48.639Z,8.09
2022-09-29T07:25:33.834Z,8.20
2022-09-29T07:28:04.178Z,8.33
2022-09-29T07:30:38.961Z,8.44
2022-09-29T07:33:07.833Z,8.55
2022-09-29T07:35:39.596Z,8.63
2022-09-29T07:38:07.437Z,8.72
2022-09-29T07:40:34.634Z,8.79
2022-09-29T07:43:02.031Z,8.86
2022-09-29T07:45:29.320Z,8.92
2022-09-29T07:47:58.272Z,8.98
2022-09-29T07:50:25.640Z,9.04
2022-09-29T07:52:53.286Z,9.11
2022-09-29T07:55:24.633Z,9.19
2022-09-29T07:57:52.701Z,9.27
2022-09-29T08:00:20.267Z,9.35
2022-09-29T08:02:48.129Z,9.41
2022-09-29T08:05:15.713Z,9.48
2022-09-29T08:07:43.079Z,9.55
2022-09-29T08:10:17.658Z,9.61
2022-09-29T08:12:45.554Z,9.66
2022-09-29T08:15:13.189Z,9.70
2022-09-29T08:17:40.549Z,9.74
2022-09-29T08:20:09.269Z,9.79
2022-09-29T08:22:36.803Z,9.82
2022-09-29T08:25:04.798Z,9.88
2022-09-29T08:27:32.454Z,9.93
2022-09-29T08:30:00.102Z,9.98
2022-09-29T08:32:28.566Z,10.04
2022-09-29T08:34:55.813Z,10.12
2022-09-29T08:37:23.492Z,10.20
2022-09-29T08:39:50.847Z,10.25
2022-09-29T08:42:28.290Z,10.32
2022-09-29T08:45:14.607Z,10.42
2022-09-29T08:47:48.371Z,10.51
2022-09-29T08:50:38.514Z,10.60
2022-09-29T08:53:18.181Z,10.69
2022-09-29T08:55:53.438Z,10.74
2022-09-29T08:58:21.334Z,10.81
2022-09-29T09:01:04.257Z,10.89
2022-09-29T09:03:50.808Z,11.01
2022-09-29T09:06:28.073Z,11.13
2022-09-29T09:08:55.426Z,11.23
2022-09-29T09:11:31.375Z,11.33
2022-09-29T09:14:19.946Z,11.45
2022-09-29T09:17:12.686Z,11.58
2022-09-29T09:19:49.052Z,11.73
2022-09-29T09:22:26.134Z,11.86
2022-09-29T09:25:08.367Z,11.97
2022-09-29T09:27:42.896Z,12.06
2022-09-29T09:30:15.912Z,12.13
2022-09-29T09:32:49.637Z,12.17
2022-09-29T09:35:54.253Z,12.19
2022-09-29T09:38:29.217Z,12.22
2022-09-29T09:40:58.817Z,12.25
2022-09-29T09:43:34.306Z,12.27
2022-09-29T09:46:08.681Z,12.31
2022-09-29T09:48:41.872Z,12.35
2022-09-29T09:51:40.194Z,12.41
2022-09-29T09:54:20.780Z,12.49
2022-09-29T09:57:18.901Z,12.59
2022-09-29T10:00:12.406Z,12.72
2022-09-29T10:02:45.840Z,12.84
2022-09-29T10:05:17.048Z,12.95
2022-09-29T10:07:44.980Z,13.05
2022-09-29T10:10:30.642Z,13.15
2022-09-29T10:13:06.665Z,13.24
2022-09-29T10:15:43.793Z,13.32
2022-09-29T10:18:15.131Z,13.39
2022-09-29T10:20:45.991Z,13.42
2022-09-29T10:23:20.904Z,13.45
2022-09-29T10:25:56.351Z,13.46
2022-09-29T10:28:24.924Z,13.46
2022-09-29T10:30:54.412Z,13.49
2022-09-29T10:33:24.298Z,13.49
2022-09-29T10:35:52.834Z,13.56
2022-09-29T10:38:27.550Z,13.68
2022-09-29T10:41:01.732Z,13.78
2022-09-29T10:43:35.068Z,13.88
2022-09-29T10:46:02.843Z,13.95
2022-09-29T10:48:30.086Z,13.99
2022-09-29T10:51:03.408Z,14.05
2022-09-29T10:53:38.623Z,14.08
2022-09-29T10:56:22.596Z,14.11
2022-09-29T10:59:04.472Z,14.15
2022-09-29T11:01:36.565Z,14.22
2022-09-29T11:04:07.690Z,14.31
2022-09-29T11:06:41.653Z,14.38
2022-09-29T11:09:13.801Z,14.41
2022-09-29T11:11:59.409Z,14.44
2022-09-29T11:14:37.358Z,14.49
2022-09-29T11:17:27.230Z,14.59
2022-09-29T11:19:58.415Z,14.65
2022-09-29T11:23:03.878Z,14.65
2022-09-29T11:26:39.645Z,14.62
2022-09-29T11:30:02.339Z,14.51
2022-09-29T11:33:10.788Z,14.46
2022-09-29T11:36:02.514Z,14.41
2022-09-29T11:38:44.817Z,14.45
2022-09-29T11:41:23.697Z,14.48
2022-09-29T11:43:55.266Z,14.53
2022-09-29T11:46:55.744Z,14.56
2022-09-29T11:49:42.088Z,14.58
2022-09-29T11:52:14.309Z,14.56
2022-09-29T11:54:56.680Z,14.50
2022-09-29T11:57:45.560Z,14.48
2022-09-29T12:00:14.993Z,14.49
2022-09-29T12:02:55.112Z,14.51
2022-09-29T12:05:44.160Z,14.53
2022-09-29T12:08:18.552Z,14.57
2022-09-29T12:11:37.704Z,14.61
2022-09-29T12:14:21.231Z,14.62
2022-09-29T12:16:58.253Z,14.62
2022-09-29T12:19:29.413Z,14.64
2022-09-29T12:21:59.637Z,14.66
2022-09-29T12:24:51.987Z,14.67
2022-09-29T12:27:30.518Z,14.67
2022-09-29T12:30:09.714Z,14.66
2022-09-29T12:32:40.854Z,14.67
2022-09-29T12:35:19.416Z,14.70
2022-09-29T12:38:15.990Z,14.72
2022-09-29T12:41:22.562Z,14.72
2022-09-29T12:44:06.151Z,14.67
2022-09-29T12:47:06.764Z,14.66
2022-09-29T12:49:40.345Z,14.68
2022-09-29T12:52:20.951Z,14.67
2022-09-29T12:54:55.642Z,14.67
2022-09-29T12:57:26.981Z,14.68
2022-09-29T12:59:54.196Z,14.70
2022-09-29T13:02:28.409Z,14.73
2022-09-29T13:05:08.484Z,14.72
2022-09-29T13:07:54.514Z,14.69
2022-09-29T13:10:43.723Z,14.68
2022-09-29T13:13:21.886Z,14.69
2022-09-29T13:15:52.416Z,14.71
2022-09-29T13:18:28.448Z,14.73
2022-09-29T13:21:13.958Z,14.73
2022-09-29T13:23:56.305Z,14.72
2022-09-29T13:26:49.940Z,14.72
2022-09-29T13:29:24.962Z,14.71
2022-09-29T13:31:54.106Z,14.70
2022-09-29T13:34:31.213Z,14.69
2022-09-29T13:37:34.187Z,14.69
2022-09-29T13:40:25.704Z,14.68
2022-09-29T13:42:56.250Z,14.67
2022-09-29T13:45:30.762Z,14.67
2022-09-29T13:48:02.375Z,14.68
2022-09-29T13:50:50.175Z,14.70
2022-09-29T13:53:20.613Z,14.73
2022-09-29T13:56:04.458Z,14.74
2022-09-29T13:59:00.041Z,14.72
2022-09-29T14:01:35.953Z,14.67
2022-09-29T14:04:34.361Z,14.65
2022-09-29T14:07:05.968Z,14.59
2022-09-29T14:09:39.624Z,14.52
2022-09-29T14:12:22.167Z,14.42
2022-09-29T14:14:55.728Z,14.35
2022-09-29T14:17:38.046Z,14.29
2022-09-29T14:20:15.938Z,14.23
2022-09-29T14:22:46.289Z,14.20
2022-09-29T14:25:16.100Z,14.17
2022-09-29T14:27:52.566Z,14.15
2022-09-29T14:30:36.493Z,14.11
2022-09-29T14:33:23.125Z,14.09
2022-09-29T14:35:59.621Z,14.10
2022-09-29T14:38:31.723Z,14.10
2022-09-29T14:41:07.934Z,14.11
2022-09-29T14:43:38.248Z,14.12
2022-09-29T14:46:27.207Z,14.12
2022-09-29T14:49:49.078Z,14.11
2022-09-29T14:52:37.328Z,14.08
2022-09-29T14:55:15.732Z,14.06
2022-09-29T14:58:12.048Z,14.03
2022-09-29T15:01:13.148Z,14.03
2022-09-29T15:03:45.044Z,14.03
2022-09-29T15:06:24.307Z,14.02
2022-09-29T15:08:58.160Z,14.02
2022-09-29T15:11:27.672Z,14.01
2022-09-29T15:13:56.225Z,13.97
2022-09-29T15:16:31.344Z,13.94
2022-09-29T15:19:23.999Z,13.91
2022-09-29T15:22:53.202Z,13.88
2022-09-29T15:25:43.964Z,13.81
2022-09-29T15:28:17.047Z,13.79
2022-09-29T15:30:45.866Z,13.78
2022-09-29T15:33:32.603Z,13.76
2022-09-29T15:36:06.495Z,13.73
2022-09-29T15:38:39.097Z,13.69
2022-09-29T15:41:13.578Z,13.65
2022-09-29T15:43:45.049Z,13.61
2022-09-29T15:46:27.435Z,13.58
2022-09-29T15:49:26.325Z,13.56
2022-09-29T15:52:01.617Z,13.53
2022-09-29T15:54:35.190Z,13.50
2022-09-29T15:57:22.227Z,13.46
2022-09-29T15:59:54.498Z,13.43
2022-09-29T16:02:30.978Z,13.40
2022-09-29T16:05:03.090Z,13.36
2022-09-29T16:07:33.149Z,13.31
2022-09-29T16:10:22.857Z,13.24
2022-09-29T16:12:57.394Z,13.14
2022-09-29T16:15:31.660Z,13.05
2022-09-29T16:18:01.238Z,12.95
2022-09-29T16:20:36.858Z,12.85
2022-09-29T16:23:27.459Z,12.75
2022-09-29T16:26:06.711Z,12.64
2022-09-29T16:28:36.737Z,12.53
2022-09-29T16:31:23.488Z,12.43
2022-09-29T16:34:01.168Z,12.30
2022-09-29T16:36:34.296Z,12.20
2022-09-29T16:39:07.458Z,12.13
2022-09-29T16:41:39.686Z,12.05
2022-09-29T16:44:15.038Z,11.98
2022-09-29T16:46:48.834Z,11.90
2022-09-29T16:49:26.582Z,11.82
2022-09-29T16:51:56.508Z,11.74
2022-09-29T16:54:35.563Z,11.67
2022-09-29T16:57:31.499Z,11.59
2022-09-29T17:00:00.875Z,11.52
2022-09-29T17:02:28.916Z,11.45
2022-09-29T17:04:57.289Z,11.40
2022-09-29T17:07:26.532Z,11.36
2022-09-29T17:10:00.874Z,11.31
2022-09-29T17:12:29.899Z,11.25
2022-09-29T17:14:57.526Z,11.19
2022-09-29T17:17:29.229Z,11.13
2022-09-29T17:19:57.205Z,11.04
2022-09-29T17:22:31.995Z,10.95
2022-09-29T17:24:59.695Z,10.86
2022-09-29T17:27:46.636Z,10.78
2022-09-29T17:30:19.105Z,10.69
2022-09-29T17:32:47.287Z,10.60
2022-09-29T17:35:16.836Z,10.51
2022-09-29T17:37:47.026Z,10.46
2022-09-29T17:40:31.261Z,10.43
2022-09-29T17:43:02.179Z,10.39
2022-09-29T17:45:30.986Z,10.36
2022-09-29T17:47:58.612Z,10.33
2022-09-29T17:50:33.195Z,10.29
2022-09-29T17:53:00.543Z,10.26
2022-09-29T17:55:28.315Z,10.24
2022-09-29T17:57:56.076Z,10.22
2022-09-29T18:00:29.494Z,10.21
2022-09-29T18:02:57.991Z,10.21
2022-09-29T18:05:29.838Z,10.19
2022-09-29T18:07:58.080Z,10.16
2022-09-29T18:10:36.705Z,10.12
2022-09-29T18:13:04.572Z,10.08
2022-09-29T18:15:32.833Z,10.06
2022-09-29T18:18:02.503Z,10.03
2022-09-29T18:20:32.197Z,10.02
2022-09-29T18:23:00.907Z,10.01
2022-09-29T18:25:29.796Z,10.00
2022-09-29T18:27:59.640Z,9.97
2022-09-29T18:30:33.712Z,9.97
2022-09-29T18:33:03.231Z,9.96
2022-09-29T18:35:37.378Z,9.94
2022-09-29T18:38:04.677Z,9.92
2022-09-29T18:40:33.113Z,9.90
2022-09-29T18:43:02.026Z,9.86
2022-09-29T18:45:33.644Z,9.82
2022-09-29T18:48:07.107Z,9.78
2022-09-29T18:50:43.724Z,9.74
2022-09-29T18:53:12.715Z,9.68
2022-09-29T18:55:44.057Z,9.64
2022-09-29T18:58:17.763Z,9.59
2022-09-29T19:00:55.800Z,9.53
2022-09-29T19:03:25.262Z,9.47
2022-09-29T19:05:53.676Z,9.44
2022-09-29T19:08:21.467Z,9.40
2022-09-29T19:10:51.644Z,9.38
2022-09-29T19:13:19.915Z,9.36
2022-09-29T19:15:48.723Z,9.34
2022-09-29T19:18:24.281Z,9.32
2022-09-29T19:20:57.032Z,9.28
2022-09-29T19:23:26.265Z,9.26
2022-09-29T19:25:56.279Z,9.24
2022-09-29T19:28:24.814Z,9.21
2022-09-29T19:30:52.772Z,9.18
2022-09-29T19:33:22.441Z,9.14
2022-09-29T19:35:56.200Z,9.10
2022-09-29T19:38:23.850Z,9.05
2022-09-29T19:40:52.041Z,9.00
2022-09-29T19:43:23.976Z,8.95
2022-09-29T19:45:52.163Z,8.90
2022-09-29T19:48:23.925Z,8.87
2022-09-29T19:51:17.116Z,8.82
2022-09-29T19:53:47.267Z,8.77
2022-09-29T19:56:17.332Z,8.73
2022-09-29T19:58:44.991Z,8.69
2022-09-29T20:01:12.722Z,8.65
2022-09-29T20:03:40.945Z,8.61
2022-09-29T20:06:10.197Z,8.57
2022-09-29T20:08:37.599Z,8.54
2022-09-29T20:11:11.032Z,8.51
2022-09-29T20:13:39.618Z,8.48
2022-09-29T20:16:08.432Z,8.44
2022-09-29T20:18:37.172Z,8.39
2022-09-29T20:21:09.383Z,8.35
2022-09-29T20:23:39.576Z,8.30
2022-09-29T20:26:10.349Z,8.24
2022-09-29T20:28:38.726Z,8.20
2022-09-29T20:31:08.045Z,8.16
2022-09-29T20:33:36.869Z,8.13
2022-09-29T20:36:06.243Z,8.10
2022-09-29T20:38:36.240Z,8.06
2022-09-29T20:41:04.211Z,8.02
2022-09-29T20:43:35.433Z,7.99
2022-09-29T20:46:06.467Z,7.97
2022-09-29T20:48:35.280Z,7.95
2022-09-29T20:51:04.526Z,7.94
2022-09-29T20:53:34.485Z,7.93
2022-09-29T20:56:16.724Z,7.92
2022-09-29T20:58:45.632Z,7.92
2022-09-29T21:01:21.127Z,7.93
2022-09-29T21:04:08.727Z,7.92
2022-09-29T21:06:38.617Z,7.85
2022-09-29T21:09:07.741Z,7.80
2022-09-29T21:11:40.291Z,7.76
2022-09-29T21:14:19.977Z,7.71
2022-09-29T21:16:51.716Z,7.68
2022-09-29T21:19:26.395Z,7.67
2022-09-29T21:21:57.229Z,7.67
2022-09-29T21:24:24.940Z,7.67
2022-09-29T21:26:52.167Z,7.66
2022-09-29T21:29:20.904Z,7.62
2022-09-29T21:31:48.827Z,7.58
2022-09-29T21:34:16.738Z,7.55
2022-09-29T21:36:43.985Z,7.52
2022-09-29T21:39:11.855Z,7.51
2022-09-29T21:41:41.477Z,7.49
2022-09-29T21:44:13.516Z,7.47
2022-09-29T21:46:41.406Z,7.48
2022-09-29T21:49:09.992Z,7.48
2022-09-29T21:51:41.642Z,7.49
2022-09-29T21:54:12.735Z,7.50
2022-09-29T21:56:41.516Z,7.51
2022-09-29T21:59:10.523Z,7.52
2022-09-29T22:01:40.941Z,7.50
2022-09-29T22:04:08.798Z,7.45
2022-09-29T22:06:37.569Z,7.43
2022-09-29T22:09:07.638Z,7.41
2022-09-29T22:11:36.970Z,7.39
2022-09-29T22:14:04.642Z,7.35
2022-09-29T22:16:34.059Z,7.31
2022-09-29T22:19:22.463Z,7.28
2022-09-29T22:21:50.436Z,7.23
2022-09-29T22:24:17.583Z,7.21
2022-09-29T22:26:44.839Z,7.18
2022-09-29T22:29:14.080Z,7.15
2022-09-29T22:31:41.945Z,7.12
2022-09-29T22:34:09.541Z,7.08
2022-09-29T22:36:36.817Z,7.04
2022-09-29T22:39:05.527Z,7.01
2022-09-29T22:41:33.567Z,6.99
2022-09-29T22:44:01.353Z,6.98
2022-09-29T22:46:30.712Z,6.95
2022-09-29T22:48:58.746Z,6.92
2022-09-29T22:51:26.057Z,6.89
2022-09-29T22:53:53.614Z,6.85
2022-09-29T22:56:28.897Z,6.82
2022-09-29T22:59:01.731Z,6.80
2022-09-29T23:01:29.677Z,6.78
2022-09-29T23:03:57.347Z,6.76
2022-09-29T23:06:25.567Z,6.74
2022-09-29T23:08:55.078Z,6.72
2022-09-29T23:11:22.946Z,6.69
2022-09-29T23:13:50.811Z,6.65
2022-09-29T23:16:18.504Z,6.62
2022-09-29T23:18:46.629Z,6.61
2022-09-29T23:21:17.662Z,6.59
2022-09-29T23:23:45.819Z,6.56
2022-09-29T23:26:13.007Z,6.55
2022-09-29T23:28:40.548Z,6.54
2022-09-29T23:31:08.817Z,6.53
2022-09-29T23:33:36.481Z,6.51
2022-09-29T23:36:08.193Z,6.48
2022-09-29T23:38:54.231Z,6.44
2022-09-29T23:41:21.485Z,6.37
2022-09-29T23:43:48.732Z,6.32
2022-09-29T23:46:16.060Z,6.29
2022-09-29T23:48:44.570Z,6.25
2022-09-29T23:51:11.921Z,6.22
2022-09-29T23:53:39.071Z,6.19
2022-09-29T23:56:06.348Z,6.17
2022-09-29T23:58:33.895Z,6.15
